createdAt,value
2019-03-25T00:00:55.213Z,68.30
2019-03-25T00:01:39.559Z,68.40
2019-03-25T00:02:17.674Z,68.50
2019-03-25T00:02:53.837Z,68.40
2019-03-25T00:03:30.254Z,68.60
2019-03-25T00:04:06.433Z,68.70
2019-03-25T00:04:42.512Z,68.70
2019-03-25T00:05:18.686Z,68.80
2019-03-25T00:05:54.802Z,68.70
2019-03-25T00:06:30.906Z,68.80
2019-03-25T00:07:07.017Z,69.70
2019-03-25T00:07:43.440Z,69.00
2019-03-25T00:08:19.818Z,69.00
2019-03-25T00:09:04.826Z,69.00
2019-03-25T00:09:33.945Z,69.10
2019-03-25T00:10:10.075Z,69.20
2019-03-25T00:10:46.208Z,69.30
2019-03-25T00:11:22.620Z,69.30
2019-03-25T00:11:58.776Z,69.40
2019-03-25T00:12:34.920Z,69.50
2019-03-25T00:13:11.386Z,69.60
2019-03-25T00:13:47.490Z,69.50
2019-03-25T00:14:23.590Z,69.50
2019-03-25T00:14:59.720Z,69.60
2019-03-25T00:15:35.811Z,69.70
2019-03-25T00:16:12.234Z,69.70
2019-03-25T00:16:48.322Z,69.80
2019-03-25T00:17:24.447Z,69.80
2019-03-25T00:18:00.588Z,70.00
2019-03-25T00:18:37.691Z,70.00
2019-03-25T00:19:13.775Z,70.00
2019-03-25T00:19:49.861Z,70.20
2019-03-25T00:20:27.052Z,70.10
2019-03-25T00:21:03.569Z,70.20
2019-03-25T00:21:39.674Z,70.50
2019-03-25T00:22:16.127Z,70.50
2019-03-25T00:22:52.211Z,70.50
2019-03-25T00:23:28.323Z,70.50
2019-03-25T00:24:04.663Z,70.50
2019-03-25T00:24:40.847Z,70.50
2019-03-25T00:25:17.072Z,70.50
2019-03-25T00:25:53.288Z,70.50
2019-03-25T00:26:29.379Z,70.50
2019-03-25T00:27:05.794Z,70.50
2019-03-25T00:27:41.875Z,70.30
2019-03-25T00:28:18.090Z,70.40
2019-03-25T00:28:54.205Z,70.30
2019-03-25T00:29:30.278Z,70.30
2019-03-25T00:30:06.672Z,70.20
2019-03-25T00:30:43.780Z,70.20
2019-03-25T00:31:19.870Z,70.20
2019-03-25T00:31:55.948Z,70.20
2019-03-25T00:32:32.039Z,70.10
2019-03-25T00:33:08.150Z,70.00
2019-03-25T00:33:44.252Z,70.10
2019-03-25T00:34:20.961Z,70.00
2019-03-25T00:34:57.066Z,70.10
2019-03-25T00:35:33.177Z,70.20
2019-03-25T00:36:09.274Z,70.20
2019-03-25T00:36:45.354Z,70.30
2019-03-25T00:37:21.516Z,70.30
2019-03-25T00:37:57.636Z,70.30
2019-03-25T00:38:33.722Z,70.30
2019-03-25T00:39:09.903Z,70.40
2019-03-25T00:39:46.262Z,70.50
2019-03-25T00:40:22.464Z,70.50
2019-03-25T00:40:58.558Z,70.50
2019-03-25T00:41:34.658Z,70.50
2019-03-25T00:42:10.755Z,70.60
2019-03-25T00:42:46.842Z,70.70
2019-03-25T00:43:22.996Z,70.60
2019-03-25T00:43:59.326Z,70.60
2019-03-25T00:44:35.972Z,70.30
2019-03-25T00:45:12.098Z,70.60
2019-03-25T00:45:48.182Z,70.60
2019-03-25T00:46:24.575Z,70.70
2019-03-25T00:47:01.272Z,70.70
2019-03-25T00:47:37.748Z,70.70
2019-03-25T00:48:14.915Z,70.80
2019-03-25T00:48:51.544Z,70.70
2019-03-25T00:49:27.623Z,70.70
2019-03-25T00:50:03.965Z,70.60
2019-03-25T00:50:40.437Z,70.40
2019-03-25T00:51:16.543Z,70.40
2019-03-25T00:51:52.729Z,70.50
2019-03-25T00:52:28.892Z,70.50
2019-03-25T00:53:05.240Z,70.50
2019-03-25T00:53:41.336Z,70.60
2019-03-25T00:54:18.165Z,70.50
2019-03-25T00:54:54.637Z,70.60
2019-03-25T00:55:31.392Z,70.60
2019-03-25T00:56:07.485Z,70.50
2019-03-25T00:56:43.576Z,70.50
2019-03-25T00:57:19.685Z,70.40
2019-03-25T00:57:55.784Z,71.20
2019-03-25T00:58:31.884Z,70.30
2019-03-25T00:59:07.946Z,70.40
2019-03-25T00:59:44.030Z,70.30
2019-03-25T01:00:20.413Z,70.40
2019-03-25T01:00:56.519Z,70.30
2019-03-25T01:01:32.596Z,70.40
2019-03-25T01:02:08.705Z,70.50
2019-03-25T01:02:45.074Z,70.40
2019-03-25T01:03:21.411Z,70.50
2019-03-25T01:03:57.775Z,70.40
2019-03-25T01:04:33.859Z,70.50
2019-03-25T01:05:09.982Z,70.50
2019-03-25T01:05:46.290Z,70.40
2019-03-25T01:06:22.374Z,70.40
2019-03-25T01:06:58.806Z,70.40
2019-03-25T01:07:35.167Z,70.40
2019-03-25T01:08:11.360Z,70.30
2019-03-25T01:08:48.682Z,70.30
2019-03-25T01:09:25.040Z,70.30
2019-03-25T01:10:01.216Z,70.40
2019-03-25T01:10:37.298Z,70.30
2019-03-25T01:11:13.395Z,70.40
2019-03-25T01:11:49.583Z,70.40
2019-03-25T01:12:25.667Z,70.50
2019-03-25T01:13:01.756Z,70.60
2019-03-25T01:13:38.230Z,70.60
2019-03-25T01:14:14.646Z,70.60
2019-03-25T01:14:50.743Z,70.60
2019-03-25T01:15:26.846Z,70.60
2019-03-25T01:16:02.967Z,71.40
2019-03-25T01:16:39.159Z,70.70
2019-03-25T01:17:15.289Z,70.70
2019-03-25T01:17:51.376Z,70.70
2019-03-25T01:18:27.466Z,70.80
2019-03-25T01:19:03.827Z,70.90
2019-03-25T01:19:39.911Z,71.10
2019-03-25T01:20:16.035Z,71.10
2019-03-25T01:20:52.206Z,71.30
2019-03-25T01:21:28.333Z,71.40
2019-03-25T01:22:04.443Z,71.30
2019-03-25T01:22:40.599Z,71.30
2019-03-25T01:23:16.711Z,71.40
2019-03-25T01:23:53.126Z,71.50
2019-03-25T01:24:29.228Z,71.60
2019-03-25T01:25:06.567Z,71.60
2019-03-25T01:25:42.659Z,71.70
2019-03-25T01:26:18.762Z,72.00
2019-03-25T01:26:55.151Z,72.10
2019-03-25T01:27:31.383Z,72.10
2019-03-25T01:28:07.470Z,72.40
2019-03-25T01:28:43.581Z,72.20
2019-03-25T01:29:19.707Z,72.30
2019-03-25T01:29:55.828Z,72.40
2019-03-25T01:30:31.922Z,72.40
2019-03-25T01:31:08.026Z,72.40
2019-03-25T01:31:44.110Z,72.50
2019-03-25T01:32:20.232Z,72.60
2019-03-25T01:32:57.302Z,72.70
2019-03-25T01:33:33.403Z,72.80
2019-03-25T01:34:09.550Z,72.80
2019-03-25T01:34:45.759Z,72.80
2019-03-25T01:35:21.889Z,72.70
2019-03-25T01:35:58.323Z,72.70
2019-03-25T01:36:34.418Z,72.80
2019-03-25T01:37:10.831Z,72.90
2019-03-25T01:37:46.966Z,72.90
2019-03-25T01:38:23.130Z,73.00
2019-03-25T01:38:59.220Z,73.00
2019-03-25T01:39:35.322Z,73.00
2019-03-25T01:40:11.414Z,73.10
2019-03-25T01:40:47.590Z,73.10
2019-03-25T01:41:23.784Z,73.20
2019-03-25T01:41:59.891Z,73.20
2019-03-25T01:42:35.998Z,73.20
2019-03-25T01:43:12.107Z,73.20
2019-03-25T01:43:48.216Z,73.10
2019-03-25T01:44:24.333Z,73.20
2019-03-25T01:45:00.416Z,73.40
2019-03-25T01:45:36.770Z,73.30
2019-03-25T01:46:13.212Z,73.30
2019-03-25T01:46:49.314Z,73.40
2019-03-25T01:47:25.446Z,73.30
2019-03-25T01:48:01.590Z,73.20
2019-03-25T01:48:37.678Z,73.30
2019-03-25T01:49:13.842Z,73.30
2019-03-25T01:49:50.015Z,73.30
2019-03-25T01:50:26.136Z,73.20
2019-03-25T01:51:02.221Z,73.20
2019-03-25T01:51:38.332Z,73.30
2019-03-25T01:52:14.442Z,73.30
2019-03-25T01:52:50.557Z,73.50
2019-03-25T01:53:26.730Z,73.40
2019-03-25T01:54:03.177Z,73.50
2019-03-25T01:54:39.292Z,73.40
2019-03-25T01:55:15.650Z,73.50
2019-03-25T01:55:52.023Z,73.50
2019-03-25T01:56:28.135Z,73.50
2019-03-25T01:57:04.251Z,73.30
2019-03-25T01:57:40.360Z,73.20
2019-03-25T01:58:16.466Z,73.10
2019-03-25T01:58:53.705Z,73.10
2019-03-25T01:59:29.790Z,73.20
2019-03-25T02:00:07.295Z,73.20
2019-03-25T02:00:43.499Z,73.40
2019-03-25T02:01:19.721Z,73.50
2019-03-25T02:01:55.875Z,73.50
2019-03-25T02:02:31.959Z,73.40
2019-03-25T02:03:08.122Z,73.60
2019-03-25T02:03:44.219Z,73.50
2019-03-25T02:04:20.387Z,73.60
2019-03-25T02:04:57.648Z,73.60
2019-03-25T02:05:33.734Z,73.60
2019-03-25T02:06:09.838Z,73.80
2019-03-25T02:06:45.999Z,73.90
2019-03-25T02:07:22.095Z,73.90
2019-03-25T02:07:58.194Z,74.10
2019-03-25T02:08:34.361Z,74.20
2019-03-25T02:09:10.486Z,74.20
2019-03-25T02:09:46.582Z,74.20
2019-03-25T02:10:22.732Z,74.20
2019-03-25T02:10:58.847Z,74.00
2019-03-25T02:11:35.046Z,74.00
2019-03-25T02:12:11.219Z,74.00
2019-03-25T02:12:47.418Z,73.90
2019-03-25T02:13:23.644Z,73.90
2019-03-25T02:13:59.802Z,74.00
2019-03-25T02:14:35.996Z,74.20
2019-03-25T02:15:12.118Z,74.20
2019-03-25T02:15:48.233Z,74.10
2019-03-25T02:16:24.663Z,74.20
2019-03-25T02:17:00.746Z,74.20
2019-03-25T02:17:36.934Z,74.20
2019-03-25T02:18:13.049Z,74.30
2019-03-25T02:18:49.478Z,74.20
2019-03-25T02:19:25.874Z,74.30
2019-03-25T02:20:02.073Z,74.30
2019-03-25T02:20:38.171Z,74.40
2019-03-25T02:21:14.310Z,74.50
2019-03-25T02:21:50.430Z,74.60
2019-03-25T02:22:26.577Z,74.60
2019-03-25T02:23:03.100Z,74.70
2019-03-25T02:23:39.607Z,74.80
2019-03-25T02:24:16.005Z,74.80
2019-03-25T02:24:52.271Z,74.90
2019-03-25T02:25:28.769Z,75.00
2019-03-25T02:26:05.132Z,74.90
2019-03-25T02:26:41.232Z,75.80
2019-03-25T02:27:17.411Z,75.10
2019-03-25T02:27:53.507Z,75.10
2019-03-25T02:28:29.598Z,75.10
2019-03-25T02:29:06.115Z,75.10
2019-03-25T02:29:42.586Z,75.10
2019-03-25T02:30:18.982Z,75.20
2019-03-25T02:30:55.100Z,75.40
2019-03-25T02:31:31.199Z,75.40
2019-03-25T02:32:07.344Z,76.20
2019-03-25T02:32:43.804Z,75.40
2019-03-25T02:33:19.910Z,75.40
2019-03-25T02:33:56.041Z,75.40
2019-03-25T02:34:32.116Z,75.40
2019-03-25T02:35:08.514Z,75.40
2019-03-25T02:35:44.891Z,75.40
2019-03-25T02:36:21.035Z,75.30
2019-03-25T02:36:57.123Z,75.20
2019-03-25T02:37:33.548Z,75.30
2019-03-25T02:38:09.634Z,75.20
2019-03-25T02:38:45.775Z,75.40
2019-03-25T02:39:21.874Z,75.30
2019-03-25T02:39:57.965Z,75.30
2019-03-25T02:40:34.044Z,75.30
2019-03-25T02:41:11.144Z,75.40
2019-03-25T02:41:47.332Z,76.10
2019-03-25T02:42:23.437Z,75.30
2019-03-25T02:43:00.497Z,75.40
2019-03-25T02:43:36.609Z,75.40
2019-03-25T02:44:12.704Z,75.40
2019-03-25T02:44:48.810Z,75.40
2019-03-25T02:45:25.026Z,75.40
2019-03-25T02:46:01.118Z,75.30
2019-03-25T02:46:37.216Z,75.40
2019-03-25T02:47:13.691Z,75.40
2019-03-25T02:47:49.774Z,75.40
2019-03-25T02:48:26.174Z,75.40
2019-03-25T02:49:02.327Z,75.40
2019-03-25T02:49:38.454Z,75.40
2019-03-25T02:50:14.565Z,75.40
2019-03-25T02:50:50.660Z,75.40
2019-03-25T02:51:26.769Z,75.40
2019-03-25T02:52:03.823Z,75.40
2019-03-25T02:52:39.932Z,75.40
2019-03-25T02:53:16.311Z,75.40
2019-03-25T02:53:52.417Z,75.40
2019-03-25T02:54:28.519Z,75.40
2019-03-25T02:55:04.861Z,75.40
2019-03-25T02:55:42.414Z,75.40
2019-03-25T02:56:18.906Z,75.40
2019-03-25T02:56:55.000Z,75.40
2019-03-25T02:57:31.360Z,75.40
2019-03-25T02:58:07.432Z,75.40
2019-03-25T02:58:43.521Z,75.40
2019-03-25T02:59:19.623Z,75.40
2019-03-25T02:59:55.744Z,75.50
2019-03-25T03:00:35.949Z,75.50
2019-03-25T03:01:12.045Z,75.60
2019-03-25T03:01:48.159Z,75.80
2019-03-25T03:02:33.668Z,75.90
2019-03-25T03:03:10.009Z,75.90
2019-03-25T03:03:46.094Z,75.90
2019-03-25T03:04:22.193Z,76.00
2019-03-25T03:04:58.366Z,76.00
2019-03-25T03:05:34.595Z,75.90
2019-03-25T03:06:10.983Z,75.90
2019-03-25T03:06:47.165Z,75.90
2019-03-25T03:07:23.305Z,75.90
2019-03-25T03:07:59.424Z,76.00
2019-03-25T03:08:35.532Z,76.00
2019-03-25T03:09:11.650Z,76.90
2019-03-25T03:09:47.796Z,76.10
2019-03-25T03:10:23.981Z,76.10
2019-03-25T03:11:00.089Z,76.10
2019-03-25T03:11:36.449Z,76.00
2019-03-25T03:12:12.570Z,76.00
2019-03-25T03:12:48.716Z,76.20
2019-03-25T03:13:25.064Z,76.20
2019-03-25T03:14:01.173Z,76.30
2019-03-25T03:14:37.270Z,76.50
2019-03-25T03:15:13.386Z,76.60
2019-03-25T03:15:49.489Z,76.70
2019-03-25T03:16:25.843Z,76.70
2019-03-25T03:17:01.922Z,76.80
2019-03-25T03:17:38.033Z,76.90
2019-03-25T03:18:14.130Z,77.00
2019-03-25T03:18:50.239Z,77.10
2019-03-25T03:19:27.323Z,77.20
2019-03-25T03:20:03.753Z,77.20
2019-03-25T03:20:40.260Z,77.20
2019-03-25T03:21:16.626Z,77.20
2019-03-25T03:21:52.742Z,77.20
2019-03-25T03:22:28.826Z,77.20
2019-03-25T03:23:05.177Z,77.20
2019-03-25T03:23:41.684Z,77.30
2019-03-25T03:24:17.780Z,77.40
2019-03-25T03:24:54.114Z,77.50
2019-03-25T03:25:30.218Z,77.70
2019-03-25T03:26:06.314Z,77.80
2019-03-25T03:26:43.476Z,77.70
2019-03-25T03:27:19.601Z,77.90
2019-03-25T03:27:55.709Z,78.00
2019-03-25T03:28:31.799Z,78.20
2019-03-25T03:29:08.162Z,78.40
2019-03-25T03:29:44.263Z,78.30
2019-03-25T03:30:20.364Z,78.30
2019-03-25T03:30:56.455Z,78.50
2019-03-25T03:31:32.631Z,78.50
2019-03-25T03:32:08.821Z,78.50
2019-03-25T03:32:45.013Z,78.50
2019-03-25T03:33:21.777Z,78.60
2019-03-25T03:33:58.169Z,78.60
2019-03-25T03:34:34.282Z,78.70
2019-03-25T03:35:10.415Z,78.70
2019-03-25T03:35:46.845Z,78.80
2019-03-25T03:36:23.142Z,78.80
2019-03-25T03:36:59.242Z,78.90
2019-03-25T03:37:35.338Z,79.10
2019-03-25T03:38:11.859Z,79.40
2019-03-25T03:38:47.963Z,79.20
2019-03-25T03:39:24.079Z,79.30
2019-03-25T03:40:00.725Z,79.30
2019-03-25T03:40:36.897Z,79.40
2019-03-25T03:41:13.009Z,79.50
2019-03-25T03:41:49.099Z,79.50
2019-03-25T03:42:25.256Z,79.70
2019-03-25T03:43:01.431Z,80.00
2019-03-25T03:43:37.540Z,79.90
2019-03-25T03:44:13.624Z,79.90
2019-03-25T03:44:49.731Z,80.00
2019-03-25T03:45:26.786Z,80.80
2019-03-25T03:46:02.873Z,80.10
2019-03-25T03:46:38.986Z,80.20
2019-03-25T03:47:15.344Z,80.00
2019-03-25T03:47:51.683Z,80.10
2019-03-25T03:48:27.750Z,80.20
2019-03-25T03:49:03.831Z,80.10
2019-03-25T03:49:39.939Z,80.30
2019-03-25T03:50:24.792Z,80.40
2019-03-25T03:51:01.133Z,80.40
2019-03-25T03:51:37.492Z,80.40
2019-03-25T03:52:13.609Z,80.40
2019-03-25T03:52:49.719Z,80.40
2019-03-25T03:53:26.089Z,80.70
2019-03-25T03:54:02.184Z,80.60
2019-03-25T03:54:38.544Z,80.80
2019-03-25T03:55:14.638Z,81.10
2019-03-25T03:55:50.871Z,81.20
2019-03-25T03:56:26.982Z,81.40
2019-03-25T03:57:03.337Z,81.90
2019-03-25T03:57:39.751Z,82.30
2019-03-25T03:58:15.889Z,82.80
2019-03-25T03:58:51.990Z,83.00
2019-03-25T03:59:28.364Z,83.80
2019-03-25T04:00:04.883Z,84.30
2019-03-25T04:00:42.256Z,84.50
2019-03-25T04:01:18.357Z,85.10
2019-03-25T04:01:54.723Z,85.80
2019-03-25T04:02:30.809Z,87.80
2019-03-25T04:03:06.903Z,87.20
2019-03-25T04:03:43.004Z,88.10
2019-03-25T04:04:19.454Z,88.50
2019-03-25T04:04:55.561Z,89.20
2019-03-25T04:05:31.647Z,89.80
2019-03-25T04:06:08.004Z,90.10
2019-03-25T04:06:44.096Z,90.20
2019-03-25T04:07:20.224Z,90.40
2019-03-25T04:07:56.325Z,90.90
2019-03-25T04:08:32.421Z,90.50
2019-03-25T04:09:08.848Z,90.70
2019-03-25T04:09:45.011Z,90.80
2019-03-25T04:10:21.361Z,91.20
2019-03-25T04:10:57.711Z,91.20
2019-03-25T04:11:34.062Z,91.20
2019-03-25T04:12:10.184Z,91.30
2019-03-25T04:12:46.672Z,91.50
2019-03-25T04:13:22.813Z,91.60
2019-03-25T04:13:59.318Z,91.60
2019-03-25T04:14:35.480Z,91.60
2019-03-25T04:15:16.340Z,91.70
2019-03-25T04:15:52.694Z,91.80
2019-03-25T04:16:29.087Z,91.80
2019-03-25T04:17:05.180Z,91.90
2019-03-25T04:17:41.580Z,91.90
2019-03-25T04:18:17.720Z,92.00
2019-03-25T04:18:53.845Z,92.20
2019-03-25T04:19:30.922Z,92.20
2019-03-25T04:20:07.604Z,92.20
2019-03-25T04:20:43.688Z,92.30
2019-03-25T04:21:20.133Z,92.40
2019-03-25T04:21:56.229Z,92.50
2019-03-25T04:22:32.315Z,92.60
2019-03-25T04:23:08.702Z,92.60
2019-03-25T04:23:46.515Z,92.60
2019-03-25T04:24:22.760Z,92.70
2019-03-25T04:24:58.838Z,92.80
2019-03-25T04:25:35.039Z,92.70
2019-03-25T04:26:27.030Z,92.70
2019-03-25T04:26:49.263Z,92.70
2019-03-25T04:27:25.364Z,92.70
2019-03-25T04:28:01.469Z,92.80
2019-03-25T04:28:37.641Z,92.90
2019-03-25T04:29:13.783Z,92.90
2019-03-25T04:29:49.883Z,93.10
2019-03-25T04:30:26.404Z,93.10
2019-03-25T04:31:02.506Z,93.10
2019-03-25T04:31:38.609Z,93.10
2019-03-25T04:32:15.235Z,93.10
2019-03-25T04:32:52.430Z,93.10
2019-03-25T04:33:28.872Z,93.10
2019-03-25T04:34:05.015Z,93.30
2019-03-25T04:34:42.115Z,93.40
2019-03-25T04:35:18.231Z,93.40
2019-03-25T04:35:54.355Z,93.40
2019-03-25T04:36:30.745Z,93.50
2019-03-25T04:37:06.841Z,93.50
2019-03-25T04:37:43.294Z,93.50
2019-03-25T04:38:19.644Z,93.70
2019-03-25T04:38:56.358Z,94.00
2019-03-25T04:39:32.545Z,93.60
2019-03-25T04:40:08.689Z,93.70
2019-03-25T04:40:44.821Z,94.00
2019-03-25T04:41:20.980Z,93.80
2019-03-25T04:41:57.097Z,93.70
2019-03-25T04:42:33.282Z,93.80
2019-03-25T04:43:09.396Z,93.80
2019-03-25T04:43:45.572Z,93.80
2019-03-25T04:44:21.943Z,93.80
2019-03-25T04:44:58.052Z,93.80
2019-03-25T04:45:34.398Z,93.90
2019-03-25T04:46:10.496Z,93.90
2019-03-25T04:46:46.700Z,93.90
2019-03-25T04:47:23.422Z,94.10
2019-03-25T04:47:59.510Z,93.90
2019-03-25T04:48:35.623Z,93.90
2019-03-25T04:49:11.723Z,93.90
2019-03-25T04:49:48.766Z,93.90
2019-03-25T04:50:24.910Z,94.00
2019-03-25T04:51:00.999Z,94.00
2019-03-25T04:51:37.094Z,94.10
2019-03-25T04:52:13.476Z,94.10
2019-03-25T04:52:49.654Z,94.20
2019-03-25T04:53:25.767Z,94.20
2019-03-25T04:54:02.183Z,94.10
2019-03-25T04:54:38.310Z,94.30
2019-03-25T04:55:14.452Z,94.30
2019-03-25T04:55:50.611Z,94.30
2019-03-25T04:56:26.775Z,94.30
2019-03-25T04:57:02.873Z,94.30
2019-03-25T04:57:39.009Z,94.30
2019-03-25T04:58:15.650Z,94.40
2019-03-25T04:58:51.766Z,94.30
2019-03-25T04:59:27.855Z,94.30
2019-03-25T05:00:04.034Z,94.40
2019-03-25T05:00:41.472Z,94.30
2019-03-25T05:01:17.579Z,94.40
2019-03-25T05:01:53.770Z,94.40
2019-03-25T05:02:29.985Z,94.40
2019-03-25T05:03:06.323Z,94.30
2019-03-25T05:03:42.439Z,94.30
2019-03-25T05:04:18.555Z,94.40
2019-03-25T05:04:54.895Z,94.40
2019-03-25T05:05:31.029Z,94.40
2019-03-25T05:06:07.780Z,94.40
2019-03-25T05:06:43.866Z,94.40
2019-03-25T05:07:21.076Z,94.40
2019-03-25T05:07:57.171Z,94.40
2019-03-25T05:08:33.328Z,94.40
2019-03-25T05:09:09.462Z,94.40
2019-03-25T05:09:45.838Z,94.40
2019-03-25T05:10:22.217Z,94.40
2019-03-25T05:10:58.689Z,94.40
2019-03-25T05:11:35.763Z,94.30
2019-03-25T05:12:11.863Z,94.30
2019-03-25T05:12:47.952Z,94.30
2019-03-25T05:13:24.042Z,94.20
2019-03-25T05:14:00.180Z,94.20
2019-03-25T05:14:36.314Z,94.20
2019-03-25T05:15:12.742Z,94.20
2019-03-25T05:15:48.860Z,94.20
2019-03-25T05:16:24.955Z,94.20
2019-03-25T05:17:01.053Z,94.20
2019-03-25T05:17:38.379Z,94.30
2019-03-25T05:18:14.516Z,94.20
2019-03-25T05:18:50.653Z,94.20
2019-03-25T05:19:27.126Z,94.30
2019-03-25T05:20:03.494Z,94.30
2019-03-25T05:20:39.869Z,94.20
2019-03-25T05:21:15.960Z,94.20
2019-03-25T05:21:52.495Z,94.10
2019-03-25T05:22:28.599Z,94.00
2019-03-25T05:23:04.975Z,93.90
2019-03-25T05:23:41.068Z,93.90
2019-03-25T05:24:17.448Z,93.90
2019-03-25T05:24:53.596Z,93.90
2019-03-25T05:25:29.989Z,93.80
2019-03-25T05:26:06.412Z,93.80
2019-03-25T05:26:50.923Z,93.80
2019-03-25T05:27:20.698Z,93.70
2019-03-25T05:27:56.863Z,93.70
2019-03-25T05:28:32.954Z,93.80
2019-03-25T05:29:09.056Z,93.80
2019-03-25T05:29:45.167Z,93.70
2019-03-25T05:30:22.974Z,93.70
2019-03-25T05:30:59.454Z,93.50
2019-03-25T05:31:35.578Z,93.40
2019-03-25T05:32:11.963Z,93.40
2019-03-25T05:32:48.082Z,93.20
2019-03-25T05:33:24.462Z,93.20
2019-03-25T05:34:00.556Z,93.20
2019-03-25T05:34:36.700Z,93.20
2019-03-25T05:35:12.799Z,93.20
2019-03-25T05:35:49.186Z,93.20
2019-03-25T05:36:25.287Z,93.30
2019-03-25T05:37:01.466Z,93.20
2019-03-25T05:37:37.831Z,93.20
2019-03-25T05:38:13.951Z,93.20
2019-03-25T05:38:50.049Z,93.40
2019-03-25T05:39:26.153Z,93.40
2019-03-25T05:40:02.299Z,93.40
2019-03-25T05:40:39.395Z,93.30
2019-03-25T05:41:16.472Z,93.30
2019-03-25T05:41:52.946Z,93.40
2019-03-25T05:42:29.049Z,93.40
2019-03-25T05:43:05.404Z,93.40
2019-03-25T05:43:41.499Z,93.40
2019-03-25T05:44:17.867Z,93.40
2019-03-25T05:44:54.243Z,93.50
2019-03-25T05:45:31.496Z,93.50
2019-03-25T05:46:07.916Z,93.50
2019-03-25T05:46:44.052Z,93.60
2019-03-25T05:47:20.180Z,93.50
2019-03-25T05:47:56.286Z,93.40
2019-03-25T05:48:33.377Z,93.20
2019-03-25T05:49:09.552Z,93.20
2019-03-25T05:49:45.996Z,93.10
2019-03-25T05:50:22.339Z,93.10
2019-03-25T05:50:58.463Z,93.00
2019-03-25T05:51:34.563Z,92.90
2019-03-25T05:52:11.606Z,92.90
2019-03-25T05:52:47.974Z,92.90
2019-03-25T05:53:24.104Z,92.80
2019-03-25T05:54:00.202Z,92.80
2019-03-25T05:54:36.306Z,93.10
2019-03-25T05:55:12.691Z,92.80
2019-03-25T05:55:48.847Z,92.80
2019-03-25T05:56:24.966Z,92.80
2019-03-25T05:57:02.805Z,92.70
2019-03-25T05:57:39.360Z,92.70
2019-03-25T05:58:15.464Z,92.70
2019-03-25T05:58:51.572Z,92.70
2019-03-25T05:59:28.178Z,92.60
2019-03-25T06:00:04.422Z,92.60
2019-03-25T06:00:40.664Z,92.60
2019-03-25T06:01:16.967Z,92.60
2019-03-25T06:01:53.107Z,92.60
2019-03-25T06:02:29.752Z,92.60
2019-03-25T06:03:05.855Z,92.60
2019-03-25T06:03:41.972Z,92.60
2019-03-25T06:04:18.081Z,92.50
2019-03-25T06:04:54.211Z,92.60
2019-03-25T06:05:30.345Z,92.50
2019-03-25T06:06:06.460Z,92.50
2019-03-25T06:06:42.637Z,92.50
2019-03-25T06:07:19.726Z,92.60
2019-03-25T06:07:55.835Z,92.60
2019-03-25T06:08:31.948Z,92.50
2019-03-25T06:09:08.050Z,92.50
2019-03-25T06:09:44.131Z,92.70
2019-03-25T06:10:20.501Z,92.50
2019-03-25T06:10:56.994Z,92.50
2019-03-25T06:11:33.149Z,92.50
2019-03-25T06:12:09.294Z,92.40
2019-03-25T06:12:45.391Z,92.30
2019-03-25T06:13:21.493Z,92.30
2019-03-25T06:13:57.599Z,92.30
2019-03-25T06:14:33.975Z,92.30
2019-03-25T06:15:10.205Z,92.20
2019-03-25T06:15:46.573Z,92.00
2019-03-25T06:16:22.671Z,92.00
2019-03-25T06:16:58.774Z,92.00
2019-03-25T06:17:35.872Z,92.00
2019-03-25T06:18:12.250Z,92.00
2019-03-25T06:18:48.381Z,92.10
2019-03-25T06:19:24.728Z,92.40
2019-03-25T06:20:00.872Z,92.10
2019-03-25T06:20:37.313Z,92.10
2019-03-25T06:21:13.463Z,92.10
2019-03-25T06:21:49.566Z,92.10
2019-03-25T06:22:25.731Z,92.20
2019-03-25T06:23:01.900Z,92.20
2019-03-25T06:23:38.044Z,92.20
2019-03-25T06:24:14.136Z,92.20
2019-03-25T06:24:50.271Z,92.20
2019-03-25T06:25:27.085Z,92.20
2019-03-25T06:26:03.462Z,92.10
2019-03-25T06:26:39.818Z,92.00
2019-03-25T06:27:16.451Z,92.00
2019-03-25T06:27:52.604Z,92.00
2019-03-25T06:28:28.721Z,92.00
2019-03-25T06:29:04.849Z,92.00
2019-03-25T06:29:41.024Z,92.00
2019-03-25T06:30:17.419Z,92.00
2019-03-25T06:30:53.507Z,92.00
2019-03-25T06:31:29.607Z,91.90
2019-03-25T06:32:05.714Z,92.00
2019-03-25T06:32:41.829Z,91.90
2019-03-25T06:33:18.182Z,91.90
2019-03-25T06:33:54.303Z,91.90
2019-03-25T06:34:30.410Z,91.90
2019-03-25T06:35:08.799Z,91.90
2019-03-25T06:35:44.727Z,91.80
2019-03-25T06:36:20.818Z,91.70
2019-03-25T06:36:56.954Z,91.70
2019-03-25T06:37:33.044Z,91.70
2019-03-25T06:38:09.147Z,91.70
2019-03-25T06:38:45.343Z,91.60
2019-03-25T06:39:21.500Z,91.50
2019-03-25T06:39:57.982Z,91.50
2019-03-25T06:40:34.344Z,91.20
2019-03-25T06:41:10.456Z,91.10
2019-03-25T06:41:46.574Z,91.00
2019-03-25T06:42:22.692Z,91.00
2019-03-25T06:42:58.781Z,91.00
2019-03-25T06:43:34.859Z,91.00
2019-03-25T06:44:11.243Z,91.10
2019-03-25T06:44:47.410Z,91.20
2019-03-25T06:45:23.554Z,91.20
2019-03-25T06:45:59.680Z,91.20
2019-03-25T06:46:36.031Z,91.50
2019-03-25T06:47:12.195Z,91.10
2019-03-25T06:47:48.306Z,91.00
2019-03-25T06:48:24.402Z,90.80
2019-03-25T06:49:00.514Z,90.80
2019-03-25T06:49:36.613Z,90.80
2019-03-25T06:50:12.772Z,90.80
2019-03-25T06:50:48.888Z,90.80
2019-03-25T06:51:24.992Z,90.80
2019-03-25T06:52:01.479Z,90.80
2019-03-25T06:52:37.600Z,90.90
2019-03-25T06:53:13.701Z,90.90
2019-03-25T06:53:50.080Z,90.90
2019-03-25T06:54:26.176Z,90.80
2019-03-25T06:55:02.633Z,90.90
2019-03-25T06:55:38.921Z,90.80
2019-03-25T06:56:15.573Z,90.70
2019-03-25T06:56:51.686Z,90.60
2019-03-25T06:57:28.281Z,90.50
2019-03-25T06:58:04.400Z,90.40
2019-03-25T06:58:40.541Z,90.30
2019-03-25T06:59:16.622Z,90.30
2019-03-25T06:59:52.740Z,90.20
2019-03-25T07:00:30.083Z,90.20
2019-03-25T07:01:06.250Z,90.20
2019-03-25T07:01:42.632Z,90.10
2019-03-25T07:02:18.710Z,90.10
2019-03-25T07:02:54.830Z,90.10
2019-03-25T07:03:30.948Z,90.10
2019-03-25T07:04:07.038Z,90.00
2019-03-25T07:04:43.128Z,90.00
2019-03-25T07:05:19.287Z,90.10
2019-03-25T07:05:55.422Z,89.20
2019-03-25T07:06:31.905Z,89.20
2019-03-25T07:07:08.033Z,90.00
2019-03-25T07:07:44.236Z,89.40
2019-03-25T07:08:20.588Z,89.40
2019-03-25T07:08:57.005Z,89.70
2019-03-25T07:09:33.113Z,89.90
2019-03-25T07:10:09.721Z,89.80
2019-03-25T07:10:45.824Z,89.90
2019-03-25T07:11:21.943Z,89.90
2019-03-25T07:11:58.035Z,89.80
2019-03-25T07:12:34.136Z,89.40
2019-03-25T07:13:10.257Z,89.40
2019-03-25T07:13:46.363Z,89.00
2019-03-25T07:14:22.471Z,89.70
2019-03-25T07:14:58.572Z,89.40
2019-03-25T07:15:34.673Z,89.30
2019-03-25T07:16:10.772Z,89.20
2019-03-25T07:16:46.866Z,89.00
2019-03-25T07:17:27.394Z,88.70
2019-03-25T07:18:03.536Z,88.60
2019-03-25T07:18:40.463Z,88.50
2019-03-25T07:19:16.870Z,88.20
2019-03-25T07:19:54.037Z,88.00
2019-03-25T07:20:30.460Z,87.80
2019-03-25T07:21:06.571Z,87.70
2019-03-25T07:21:42.771Z,87.80
2019-03-25T07:22:19.694Z,88.00
2019-03-25T07:22:55.798Z,88.00
2019-03-25T07:23:31.906Z,88.30
2019-03-25T07:24:07.986Z,88.40
2019-03-25T07:24:44.367Z,88.50
2019-03-25T07:25:20.455Z,88.50
2019-03-25T07:25:56.550Z,89.00
2019-03-25T07:26:32.705Z,88.30
2019-03-25T07:27:09.088Z,88.30
2019-03-25T07:27:45.214Z,88.30
2019-03-25T07:28:21.329Z,88.30
2019-03-25T07:28:57.441Z,88.40
2019-03-25T07:29:33.563Z,88.40
2019-03-25T07:30:11.392Z,88.20
2019-03-25T07:30:47.498Z,88.20
2019-03-25T07:31:23.590Z,88.30
2019-03-25T07:32:00.284Z,88.50
2019-03-25T07:32:36.422Z,88.50
2019-03-25T07:33:12.807Z,88.50
2019-03-25T07:33:48.915Z,88.30
2019-03-25T07:34:25.037Z,88.00
2019-03-25T07:35:01.477Z,87.70
2019-03-25T07:35:37.610Z,87.60
2019-03-25T07:36:13.738Z,87.30
2019-03-25T07:36:50.154Z,87.10
2019-03-25T07:37:26.327Z,87.00
2019-03-25T07:38:02.430Z,86.80
2019-03-25T07:38:38.875Z,86.80
2019-03-25T07:39:15.231Z,86.80
2019-03-25T07:39:51.646Z,86.70
2019-03-25T07:40:27.739Z,86.40
2019-03-25T07:41:03.847Z,86.20
2019-03-25T07:41:41.085Z,86.10
2019-03-25T07:42:17.194Z,85.90
2019-03-25T07:42:53.399Z,85.70
2019-03-25T07:43:29.529Z,85.50
2019-03-25T07:44:08.686Z,85.40
2019-03-25T07:44:44.447Z,85.40
2019-03-25T07:45:20.621Z,85.50
2019-03-25T07:45:56.732Z,85.50
2019-03-25T07:46:32.846Z,85.60
2019-03-25T07:47:09.080Z,85.30
2019-03-25T07:47:45.233Z,85.10
2019-03-25T07:48:21.333Z,84.60